Terminal Aerodrome Forecast
Issued by NWS Grand Rapids, MI

Home | Current Version | Previous Version | Text Only | Print | Product List | Glossary On
Versions: 1 2 3 4 5 6 7 8 9 10 11 12 13 14 15 16 17 18 19
788
FTUS43 KGRR 232322
TAFGRR
TAF
KGRR 232322Z 2400/2424 24007KT P6SM BKN045 BKN250
     FM240200 19006KT P6SM SKC
     FM241500 20010G22KT P6SM SKC
     FM241800 20022G32KT P6SM BKN250=

USA.gov is the U.S. government's official web portal to all federal, state and local government web resources and services.